sensor_id;sensor_type;location;lat;lon;timestamp;P1;durP1;ratioP1;P2;durP2;ratioP2
47866;SDS011;33628;50.806;11.586;2022-12-10T00:01:03;70.38;;;31.27;;
47866;SDS011;33628;50.806;11.586;2022-12-10T00:03:33;68.30;;;29.92;;
47866;SDS011;33628;50.806;11.586;2022-12-10T00:06:02;71.90;;;30.10;;
47866;SDS011;33628;50.806;11.586;2022-12-10T00:08:30;67.30;;;29.77;;
47866;SDS011;33628;50.806;11.586;2022-12-10T00:10:57;66.03;;;28.67;;
47866;SDS011;33628;50.806;11.586;2022-12-10T00:13:24;64.55;;;28.13;;
47866;SDS011;33628;50.806;11.586;2022-12-10T00:15:51;69.13;;;28.70;;
47866;SDS011;33628;50.806;11.586;2022-12-10T00:18:18;67.15;;;30.00;;
47866;SDS011;33628;50.806;11.586;2022-12-10T00:20:45;58.97;;;27.30;;
47866;SDS011;33628;50.806;11.586;2022-12-10T00:23:13;62.45;;;27.75;;
47866;SDS011;33628;50.806;11.586;2022-12-10T00:25:39;62.15;;;28.52;;
47866;SDS011;33628;50.806;11.586;2022-12-10T00:28:06;63.33;;;28.13;;
47866;SDS011;33628;50.806;11.586;2022-12-10T00:30:33;68.28;;;28.80;;
47866;SDS011;33628;50.806;11.586;2022-12-10T00:33:00;64.88;;;28.40;;
47866;SDS011;33628;50.806;11.586;2022-12-10T00:35:27;65.63;;;29.67;;
47866;SDS011;33628;50.806;11.586;2022-12-10T00:37:53;64.40;;;28.95;;
47866;SDS011;33628;50.806;11.586;2022-12-10T00:40:22;71.28;;;28.58;;
47866;SDS011;33628;50.806;11.586;2022-12-10T00:42:49;66.28;;;28.50;;
47866;SDS011;33628;50.806;11.586;2022-12-10T00:45:16;65.65;;;27.67;;
47866;SDS011;33628;50.806;11.586;2022-12-10T00:47:42;68.30;;;28.35;;
47866;SDS011;33628;50.806;11.586;2022-12-10T00:50:09;72.40;;;29.17;;
47866;SDS011;33628;50.806;11.586;2022-12-10T00:52:36;64.20;;;27.42;;
47866;SDS011;33628;50.806;11.586;2022-12-10T00:55:03;70.72;;;29.00;;
47866;SDS011;33628;50.806;11.586;2022-12-10T00:57:31;68.95;;;28.23;;
47866;SDS011;33628;50.806;11.586;2022-12-10T00:59:58;71.47;;;28.88;;
47866;SDS011;33628;50.806;11.586;2022-12-10T01:02:25;68.30;;;28.63;;
47866;SDS011;33628;50.806;11.586;2022-12-10T01:04:52;65.97;;;26.23;;
47866;SDS011;33628;50.806;11.586;2022-12-10T01:07:19;67.40;;;26.83;;
47866;SDS011;33628;50.806;11.586;2022-12-10T01:09:46;64.25;;;27.63;;
47866;SDS011;33628;50.806;11.586;2022-12-10T01:12:13;64.93;;;28.35;;
47866;SDS011;33628;50.806;11.586;2022-12-10T01:14:41;61.00;;;27.13;;
47866;SDS011;33628;50.806;11.586;2022-12-10T01:17:08;61.35;;;26.98;;
47866;SDS011;33628;50.806;11.586;2022-12-10T01:19:35;65.32;;;27.05;;
47866;SDS011;33628;50.806;11.586;2022-12-10T01:22:02;67.65;;;28.75;;
47866;SDS011;33628;50.806;11.586;2022-12-10T01:24:29;65.47;;;28.77;;
47866;SDS011;33628;50.806;11.586;2022-12-10T01:26:56;60.95;;;27.90;;
47866;SDS011;33628;50.806;11.586;2022-12-10T01:29:24;61.10;;;27.95;;
47866;SDS011;33628;50.806;11.586;2022-12-10T01:31:54;63.55;;;26.10;;
47866;SDS011;33628;50.806;11.586;2022-12-10T01:34:22;64.03;;;26.38;;
47866;SDS011;33628;50.806;11.586;2022-12-10T01:36:50;58.97;;;26.40;;
47866;SDS011;33628;50.806;11.586;2022-12-10T01:39:18;67.15;;;27.75;;
47866;SDS011;33628;50.806;11.586;2022-12-10T01:41:47;64.68;;;27.13;;
47866;SDS011;33628;50.806;11.586;2022-12-10T01:47:22;65.20;;;25.08;;
47866;SDS011;33628;50.806;11.586;2022-12-10T01:49:50;56.60;;;25.92;;
47866;SDS011;33628;50.806;11.586;2022-12-10T01:52:17;61.55;;;25.75;;
47866;SDS011;33628;50.806;11.586;2022-12-10T01:54:45;59.45;;;24.98;;
47866;SDS011;33628;50.806;11.586;2022-12-10T01:57:12;57.28;;;24.60;;
47866;SDS011;33628;50.806;11.586;2022-12-10T01:59:40;51.47;;;23.75;;
47866;SDS011;33628;50.806;11.586;2022-12-10T02:02:10;58.53;;;24.90;;
47866;SDS011;33628;50.806;11.586;2022-12-10T02:04:43;61.65;;;26.63;;
47866;SDS011;33628;50.806;11.586;2022-12-10T02:07:28;59.38;;;24.85;;
47866;SDS011;33628;50.806;11.586;2022-12-10T02:10:02;60.60;;;25.13;;
47866;SDS011;33628;50.806;11.586;2022-12-10T02:12:34;64.60;;;24.75;;
47866;SDS011;33628;50.806;11.586;2022-12-10T02:15:04;60.90;;;24.42;;
47866;SDS011;33628;50.806;11.586;2022-12-10T02:17:36;62.22;;;25.02;;
47866;SDS011;33628;50.806;11.586;2022-12-10T02:20:07;63.00;;;24.08;;
47866;SDS011;33628;50.806;11.586;2022-12-10T02:22:38;66.78;;;24.25;;
47866;SDS011;33628;50.806;11.586;2022-12-10T02:25:06;68.60;;;26.98;;
47866;SDS011;33628;50.806;11.586;2022-12-10T02:27:37;62.40;;;24.35;;
47866;SDS011;33628;50.806;11.586;2022-12-10T02:30:12;57.80;;;22.90;;
47866;SDS011;33628;50.806;11.586;2022-12-10T02:32:40;66.28;;;25.88;;
47866;SDS011;33628;50.806;11.586;2022-12-10T02:35:09;64.70;;;25.00;;
47866;SDS011;33628;50.806;11.586;2022-12-10T02:37:40;69.03;;;27.25;;
47866;SDS011;33628;50.806;11.586;2022-12-10T02:40:11;68.90;;;26.83;;
47866;SDS011;33628;50.806;11.586;2022-12-10T02:42:44;65.53;;;24.75;;
47866;SDS011;33628;50.806;11.586;2022-12-10T02:45:15;61.55;;;24.40;;
47866;SDS011;33628;50.806;11.586;2022-12-10T02:47:42;70.60;;;23.60;;
47866;SDS011;33628;50.806;11.586;2022-12-10T02:50:09;67.38;;;25.40;;
47866;SDS011;33628;50.806;11.586;2022-12-10T02:52:37;64.93;;;23.95;;
47866;SDS011;33628;50.806;11.586;2022-12-10T02:55:03;65.28;;;24.63;;
47866;SDS011;33628;50.806;11.586;2022-12-10T02:57:34;64.53;;;23.55;;
47866;SDS011;33628;50.806;11.586;2022-12-10T03:00:07;70.65;;;26.98;;
47866;SDS011;33628;50.806;11.586;2022-12-10T03:03:05;71.78;;;25.30;;
47866;SDS011;33628;50.806;11.586;2022-12-10T03:05:45;61.25;;;22.27;;
47866;SDS011;33628;50.806;11.586;2022-12-10T03:08:15;62.60;;;25.92;;
47866;SDS011;33628;50.806;11.586;2022-12-10T03:10:46;66.50;;;26.35;;
47866;SDS011;33628;50.806;11.586;2022-12-10T03:13:17;66.22;;;26.08;;
47866;SDS011;33628;50.806;11.586;2022-12-10T03:15:48;60.78;;;24.55;;
47866;SDS011;33628;50.806;11.586;2022-12-10T03:18:17;69.05;;;26.63;;
47866;SDS011;33628;50.806;11.586;2022-12-10T03:20:45;71.28;;;26.52;;
47866;SDS011;33628;50.806;11.586;2022-12-10T03:23:14;68.90;;;26.98;;
47866;SDS011;33628;50.806;11.586;2022-12-10T03:25:42;65.43;;;25.38;;
47866;SDS011;33628;50.806;11.586;2022-12-10T03:28:10;66.85;;;27.35;;
47866;SDS011;33628;50.806;11.586;2022-12-10T03:30:37;68.03;;;27.05;;
47866;SDS011;33628;50.806;11.586;2022-12-10T03:33:05;65.82;;;26.17;;
47866;SDS011;33628;50.806;11.586;2022-12-10T03:35:34;72.53;;;27.65;;
47866;SDS011;33628;50.806;11.586;2022-12-10T03:38:01;76.75;;;27.73;;
47866;SDS011;33628;50.806;11.586;2022-12-10T03:40:27;72.78;;;27.52;;
47866;SDS011;33628;50.806;11.586;2022-12-10T03:42:54;68.57;;;25.67;;
47866;SDS011;33628;50.806;11.586;2022-12-10T03:45:21;69.68;;;26.92;;
47866;SDS011;33628;50.806;11.586;2022-12-10T03:47:48;70.60;;;26.92;;
47866;SDS011;33628;50.806;11.586;2022-12-10T03:50:15;75.80;;;27.70;;
47866;SDS011;33628;50.806;11.586;2022-12-10T03:52:43;72.03;;;27.70;;
47866;SDS011;33628;50.806;11.586;2022-12-10T03:55:10;71.80;;;26.50;;
47866;SDS011;33628;50.806;11.586;2022-12-10T03:57:37;64.93;;;24.15;;
47866;SDS011;33628;50.806;11.586;2022-12-10T04:00:06;72.25;;;26.73;;
47866;SDS011;33628;50.806;11.586;2022-12-10T04:02:40;75.28;;;27.35;;
47866;SDS011;33628;50.806;11.586;2022-12-10T04:05:07;70.85;;;25.98;;
47866;SDS011;33628;50.806;11.586;2022-12-10T04:07:35;73.43;;;28.38;;
47866;SDS011;33628;50.806;11.586;2022-12-10T04:10:05;73.03;;;27.08;;
47866;SDS011;33628;50.806;11.586;2022-12-10T04:12:32;64.28;;;26.33;;
47866;SDS011;33628;50.806;11.586;2022-12-10T04:15:00;72.10;;;26.15;;
47866;SDS011;33628;50.806;11.586;2022-12-10T04:17:45;69.18;;;25.50;;
47866;SDS011;33628;50.806;11.586;2022-12-10T04:20:12;70.80;;;26.67;;
47866;SDS011;33628;50.806;11.586;2022-12-10T04:22:57;66.57;;;24.90;;
47866;SDS011;33628;50.806;11.586;2022-12-10T04:25:44;67.90;;;26.95;;
47866;SDS011;33628;50.806;11.586;2022-12-10T04:28:31;57.25;;;23.98;;
47866;SDS011;33628;50.806;11.586;2022-12-10T04:30:57;67.55;;;24.98;;
47866;SDS011;33628;50.806;11.586;2022-12-10T04:33:24;69.68;;;26.55;;
47866;SDS011;33628;50.806;11.586;2022-12-10T04:35:51;65.63;;;25.50;;
47866;SDS011;33628;50.806;11.586;2022-12-10T04:38:18;61.95;;;25.10;;
47866;SDS011;33628;50.806;11.586;2022-12-10T04:40:46;69.65;;;25.95;;
47866;SDS011;33628;50.806;11.586;2022-12-10T04:43:12;64.32;;;24.73;;
47866;SDS011;33628;50.806;11.586;2022-12-10T04:45:39;59.45;;;22.40;;
47866;SDS011;33628;50.806;11.586;2022-12-10T04:48:06;65.63;;;23.80;;
47866;SDS011;33628;50.806;11.586;2022-12-10T04:50:34;60.92;;;25.33;;
47866;SDS011;33628;50.806;11.586;2022-12-10T04:53:00;64.57;;;25.30;;
47866;SDS011;33628;50.806;11.586;2022-12-10T04:55:27;58.72;;;24.48;;
47866;SDS011;33628;50.806;11.586;2022-12-10T04:57:55;53.35;;;22.85;;
47866;SDS011;33628;50.806;11.586;2022-12-10T05:00:23;55.50;;;23.35;;
47866;SDS011;33628;50.806;11.586;2022-12-10T05:02:50;60.22;;;25.88;;
47866;SDS011;33628;50.806;11.586;2022-12-10T05:05:17;63.17;;;25.55;;
47866;SDS011;33628;50.806;11.586;2022-12-10T05:07:43;59.30;;;23.77;;
47866;SDS011;33628;50.806;11.586;2022-12-10T05:10:10;59.85;;;24.52;;
47866;SDS011;33628;50.806;11.586;2022-12-10T05:12:37;59.78;;;24.98;;
47866;SDS011;33628;50.806;11.586;2022-12-10T05:15:06;62.13;;;25.35;;
47866;SDS011;33628;50.806;11.586;2022-12-10T05:17:33;57.15;;;24.15;;
47866;SDS011;33628;50.806;11.586;2022-12-10T05:20:01;57.55;;;23.15;;
47866;SDS011;33628;50.806;11.586;2022-12-10T05:22:28;61.40;;;24.23;;
47866;SDS011;33628;50.806;11.586;2022-12-10T05:25:13;54.78;;;23.30;;
47866;SDS011;33628;50.806;11.586;2022-12-10T05:27:39;52.80;;;22.67;;
47866;SDS011;33628;50.806;11.586;2022-12-10T05:30:08;57.00;;;24.38;;
47866;SDS011;33628;50.806;11.586;2022-12-10T05:32:35;58.30;;;22.73;;
47866;SDS011;33628;50.806;11.586;2022-12-10T05:35:02;54.70;;;22.30;;
47866;SDS011;33628;50.806;11.586;2022-12-10T05:37:29;57.00;;;23.83;;
47866;SDS011;33628;50.806;11.586;2022-12-10T05:39:56;56.25;;;22.70;;
47866;SDS011;33628;50.806;11.586;2022-12-10T05:42:23;59.45;;;22.65;;
47866;SDS011;33628;50.806;11.586;2022-12-10T05:44:49;58.40;;;24.02;;
47866;SDS011;33628;50.806;11.586;2022-12-10T05:47:17;49.33;;;20.85;;
47866;SDS011;33628;50.806;11.586;2022-12-10T05:49:44;47.75;;;21.98;;
47866;SDS011;33628;50.806;11.586;2022-12-10T05:52:13;45.45;;;19.42;;
47866;SDS011;33628;50.806;11.586;2022-12-10T05:54:39;49.83;;;20.85;;
47866;SDS011;33628;50.806;11.586;2022-12-10T05:57:06;51.15;;;20.67;;
47866;SDS011;33628;50.806;11.586;2022-12-10T05:59:34;47.20;;;21.33;;
47866;SDS011;33628;50.806;11.586;2022-12-10T06:02:00;45.95;;;21.27;;
47866;SDS011;33628;50.806;11.586;2022-12-10T06:04:28;46.33;;;19.77;;
47866;SDS011;33628;50.806;11.586;2022-12-10T06:06:55;48.40;;;19.70;;
47866;SDS011;33628;50.806;11.586;2022-12-10T06:09:22;51.08;;;21.27;;
47866;SDS011;33628;50.806;11.586;2022-12-10T06:11:48;45.10;;;18.90;;
47866;SDS011;33628;50.806;11.586;2022-12-10T06:14:15;42.63;;;19.25;;
47866;SDS011;33628;50.806;11.586;2022-12-10T06:16:41;41.10;;;19.05;;
47866;SDS011;33628;50.806;11.586;2022-12-10T06:19:08;46.03;;;19.50;;
47866;SDS011;33628;50.806;11.586;2022-12-10T06:21:36;44.17;;;20.10;;
47866;SDS011;33628;50.806;11.586;2022-12-10T06:24:03;48.17;;;21.35;;
47866;SDS011;33628;50.806;11.586;2022-12-10T06:26:30;45.22;;;20.58;;
47866;SDS011;33628;50.806;11.586;2022-12-10T06:28:57;46.45;;;20.27;;
47866;SDS011;33628;50.806;11.586;2022-12-10T06:31:23;43.95;;;20.30;;
47866;SDS011;33628;50.806;11.586;2022-12-10T06:33:50;45.67;;;20.75;;
47866;SDS011;33628;50.806;11.586;2022-12-10T06:36:18;47.60;;;20.50;;
47866;SDS011;33628;50.806;11.586;2022-12-10T06:38:47;48.05;;;19.67;;
47866;SDS011;33628;50.806;11.586;2022-12-10T06:41:14;44.70;;;20.02;;
47866;SDS011;33628;50.806;11.586;2022-12-10T06:43:42;46.85;;;20.17;;
47866;SDS011;33628;50.806;11.586;2022-12-10T06:46:10;48.47;;;19.23;;
47866;SDS011;33628;50.806;11.586;2022-12-10T06:48:38;45.45;;;20.08;;
47866;SDS011;33628;50.806;11.586;2022-12-10T06:51:05;52.53;;;21.25;;
47866;SDS011;33628;50.806;11.586;2022-12-10T06:53:32;44.78;;;19.67;;
47866;SDS011;33628;50.806;11.586;2022-12-10T06:56:02;50.05;;;21.65;;
47866;SDS011;33628;50.806;11.586;2022-12-10T06:58:30;46.40;;;20.02;;
47866;SDS011;33628;50.806;11.586;2022-12-10T07:01:01;48.03;;;20.10;;
47866;SDS011;33628;50.806;11.586;2022-12-10T07:03:28;46.25;;;19.83;;
47866;SDS011;33628;50.806;11.586;2022-12-10T07:05:56;45.97;;;19.83;;
47866;SDS011;33628;50.806;11.586;2022-12-10T07:08:23;46.92;;;21.17;;
47866;SDS011;33628;50.806;11.586;2022-12-10T07:10:50;49.65;;;20.55;;
47866;SDS011;33628;50.806;11.586;2022-12-10T07:13:18;44.70;;;19.10;;
47866;SDS011;33628;50.806;11.586;2022-12-10T07:15:44;43.50;;;19.40;;
47866;SDS011;33628;50.806;11.586;2022-12-10T07:18:11;42.53;;;19.33;;
47866;SDS011;33628;50.806;11.586;2022-12-10T07:20:38;50.65;;;20.33;;
47866;SDS011;33628;50.806;11.586;2022-12-10T07:23:05;44.90;;;19.88;;
47866;SDS011;33628;50.806;11.586;2022-12-10T07:25:32;49.90;;;20.67;;
47866;SDS011;33628;50.806;11.586;2022-12-10T07:27:59;47.67;;;19.95;;
47866;SDS011;33628;50.806;11.586;2022-12-10T07:30:27;49.45;;;20.73;;
47866;SDS011;33628;50.806;11.586;2022-12-10T07:32:53;46.88;;;16.90;;
47866;SDS011;33628;50.806;11.586;2022-12-10T07:35:20;54.90;;;22.55;;
47866;SDS011;33628;50.806;11.586;2022-12-10T07:37:47;49.75;;;20.48;;
47866;SDS011;33628;50.806;11.586;2022-12-10T07:40:13;54.85;;;22.73;;
47866;SDS011;33628;50.806;11.586;2022-12-10T07:42:40;59.58;;;21.58;;
47866;SDS011;33628;50.806;11.586;2022-12-10T07:45:07;58.35;;;22.30;;
47866;SDS011;33628;50.806;11.586;2022-12-10T07:47:36;56.75;;;21.60;;
47866;SDS011;33628;50.806;11.586;2022-12-10T07:50:03;58.90;;;22.55;;
47866;SDS011;33628;50.806;11.586;2022-12-10T07:52:31;57.80;;;22.63;;
47866;SDS011;33628;50.806;11.586;2022-12-10T07:54:57;54.45;;;21.52;;
47866;SDS011;33628;50.806;11.586;2022-12-10T07:57:24;55.50;;;22.38;;
47866;SDS011;33628;50.806;11.586;2022-12-10T07:59:53;58.53;;;23.20;;
47866;SDS011;33628;50.806;11.586;2022-12-10T08:02:20;54.83;;;22.50;;
47866;SDS011;33628;50.806;11.586;2022-12-10T08:04:48;59.33;;;23.90;;
47866;SDS011;33628;50.806;11.586;2022-12-10T08:07:18;65.35;;;24.50;;
47866;SDS011;33628;50.806;11.586;2022-12-10T08:09:44;62.30;;;22.98;;
47866;SDS011;33628;50.806;11.586;2022-12-10T08:12:11;59.55;;;24.00;;
47866;SDS011;33628;50.806;11.586;2022-12-10T08:14:37;59.28;;;24.15;;
47866;SDS011;33628;50.806;11.586;2022-12-10T08:17:05;56.00;;;24.30;;
47866;SDS011;33628;50.806;11.586;2022-12-10T08:19:31;57.33;;;23.65;;
47866;SDS011;33628;50.806;11.586;2022-12-10T08:21:59;55.40;;;22.92;;
47866;SDS011;33628;50.806;11.586;2022-12-10T08:24:26;52.70;;;23.15;;
47866;SDS011;33628;50.806;11.586;2022-12-10T08:26:53;52.97;;;22.52;;
47866;SDS011;33628;50.806;11.586;2022-12-10T08:29:19;60.30;;;23.98;;
47866;SDS011;33628;50.806;11.586;2022-12-10T08:31:46;51.92;;;22.23;;
47866;SDS011;33628;50.806;11.586;2022-12-10T08:34:15;52.10;;;21.27;;
47866;SDS011;33628;50.806;11.586;2022-12-10T08:36:43;50.60;;;22.95;;
47866;SDS011;33628;50.806;11.586;2022-12-10T08:39:12;47.97;;;22.73;;
47866;SDS011;33628;50.806;11.586;2022-12-10T08:41:42;49.83;;;22.63;;
47866;SDS011;33628;50.806;11.586;2022-12-10T08:44:09;49.28;;;21.40;;
47866;SDS011;33628;50.806;11.586;2022-12-10T08:46:36;43.50;;;19.60;;
47866;SDS011;33628;50.806;11.586;2022-12-10T08:49:03;48.45;;;21.27;;
47866;SDS011;33628;50.806;11.586;2022-12-10T08:51:29;47.95;;;22.55;;
47866;SDS011;33628;50.806;11.586;2022-12-10T08:53:56;50.47;;;23.27;;
47866;SDS011;33628;50.806;11.586;2022-12-10T08:56:24;46.00;;;20.80;;
47866;SDS011;33628;50.806;11.586;2022-12-10T08:58:51;51.15;;;21.70;;
47866;SDS011;33628;50.806;11.586;2022-12-10T09:01:18;44.97;;;20.27;;
47866;SDS011;33628;50.806;11.586;2022-12-10T09:03:45;48.17;;;21.52;;
47866;SDS011;33628;50.806;11.586;2022-12-10T09:06:13;47.00;;;21.58;;
47866;SDS011;33628;50.806;11.586;2022-12-10T09:08:40;49.95;;;20.92;;
47866;SDS011;33628;50.806;11.586;2022-12-10T09:11:07;47.00;;;22.13;;
47866;SDS011;33628;50.806;11.586;2022-12-10T09:13:36;44.50;;;19.95;;
47866;SDS011;33628;50.806;11.586;2022-12-10T09:16:03;42.95;;;19.80;;
47866;SDS011;33628;50.806;11.586;2022-12-10T09:18:30;43.53;;;19.80;;
47866;SDS011;33628;50.806;11.586;2022-12-10T09:20:57;36.55;;;18.20;;
47866;SDS011;33628;50.806;11.586;2022-12-10T09:23:24;37.28;;;18.58;;
47866;SDS011;33628;50.806;11.586;2022-12-10T09:25:50;37.55;;;18.15;;
47866;SDS011;33628;50.806;11.586;2022-12-10T09:28:18;39.47;;;19.15;;
47866;SDS011;33628;50.806;11.586;2022-12-10T09:30:50;39.92;;;16.80;;
47866;SDS011;33628;50.806;11.586;2022-12-10T09:33:21;43.67;;;19.83;;
47866;SDS011;33628;50.806;11.586;2022-12-10T09:35:48;40.28;;;19.45;;
47866;SDS011;33628;50.806;11.586;2022-12-10T09:38:15;38.70;;;18.73;;
47866;SDS011;33628;50.806;11.586;2022-12-10T09:40:43;42.85;;;22.55;;
47866;SDS011;33628;50.806;11.586;2022-12-10T09:43:14;37.67;;;17.23;;
47866;SDS011;33628;50.806;11.586;2022-12-10T09:45:49;36.83;;;18.48;;
47866;SDS011;33628;50.806;11.586;2022-12-10T09:48:26;42.42;;;18.75;;
47866;SDS011;33628;50.806;11.586;2022-12-10T09:50:58;50.25;;;23.58;;
47866;SDS011;33628;50.806;11.586;2022-12-10T09:53:29;45.20;;;21.98;;
47866;SDS011;33628;50.806;11.586;2022-12-10T09:55:56;35.67;;;16.30;;
47866;SDS011;33628;50.806;11.586;2022-12-10T09:58:24;35.97;;;17.75;;
47866;SDS011;33628;50.806;11.586;2022-12-10T10:00:56;37.80;;;18.48;;
47866;SDS011;33628;50.806;11.586;2022-12-10T10:03:24;35.03;;;17.70;;
47866;SDS011;33628;50.806;11.586;2022-12-10T10:05:51;32.70;;;16.10;;
47866;SDS011;33628;50.806;11.586;2022-12-10T10:08:21;34.45;;;16.52;;
47866;SDS011;33628;50.806;11.586;2022-12-10T10:10:52;36.92;;;17.85;;
47866;SDS011;33628;50.806;11.586;2022-12-10T10:13:20;38.97;;;19.25;;
47866;SDS011;33628;50.806;11.586;2022-12-10T10:15:53;36.47;;;17.30;;
47866;SDS011;33628;50.806;11.586;2022-12-10T10:18:23;37.40;;;17.50;;
47866;SDS011;33628;50.806;11.586;2022-12-10T10:20:56;37.35;;;19.08;;
47866;SDS011;33628;50.806;11.586;2022-12-10T10:23:23;38.75;;;18.05;;
47866;SDS011;33628;50.806;11.586;2022-12-10T10:25:49;37.85;;;16.90;;
47866;SDS011;33628;50.806;11.586;2022-12-10T10:28:16;33.85;;;16.15;;
47866;SDS011;33628;50.806;11.586;2022-12-10T10:30:45;35.55;;;16.45;;
47866;SDS011;33628;50.806;11.586;2022-12-10T10:33:14;35.75;;;18.17;;
47866;SDS011;33628;50.806;11.586;2022-12-10T10:35:42;33.38;;;16.50;;
47866;SDS011;33628;50.806;11.586;2022-12-10T10:38:13;35.97;;;17.23;;
47866;SDS011;33628;50.806;11.586;2022-12-10T10:40:45;38.80;;;18.30;;
47866;SDS011;33628;50.806;11.586;2022-12-10T10:43:14;33.72;;;16.30;;
47866;SDS011;33628;50.806;11.586;2022-12-10T10:45:44;31.05;;;15.75;;
47866;SDS011;33628;50.806;11.586;2022-12-10T10:48:16;30.85;;;15.65;;
47866;SDS011;33628;50.806;11.586;2022-12-10T10:50:45;33.58;;;16.33;;
47866;SDS011;33628;50.806;11.586;2022-12-10T10:53:23;28.02;;;14.85;;
47866;SDS011;33628;50.806;11.586;2022-12-10T10:55:56;31.42;;;16.15;;
47866;SDS011;33628;50.806;11.586;2022-12-10T10:58:24;32.88;;;16.50;;
47866;SDS011;33628;50.806;11.586;2022-12-10T11:00:55;35.92;;;18.42;;
47866;SDS011;33628;50.806;11.586;2022-12-10T11:03:25;32.67;;;17.48;;
47866;SDS011;33628;50.806;11.586;2022-12-10T11:05:53;28.60;;;14.15;;
47866;SDS011;33628;50.806;11.586;2022-12-10T11:08:20;32.25;;;15.82;;
47866;SDS011;33628;50.806;11.586;2022-12-10T11:10:47;30.75;;;16.08;;
47866;SDS011;33628;50.806;11.586;2022-12-10T11:13:19;32.00;;;15.55;;
47866;SDS011;33628;50.806;11.586;2022-12-10T11:15:53;33.47;;;17.40;;
47866;SDS011;33628;50.806;11.586;2022-12-10T11:18:23;33.75;;;16.25;;
47866;SDS011;33628;50.806;11.586;2022-12-10T11:20:56;38.85;;;17.45;;
47866;SDS011;33628;50.806;11.586;2022-12-10T11:23:27;41.60;;;19.65;;
47866;SDS011;33628;50.806;11.586;2022-12-10T11:25:56;44.88;;;20.65;;
47866;SDS011;33628;50.806;11.586;2022-12-10T11:28:32;38.75;;;16.70;;
47866;SDS011;33628;50.806;11.586;2022-12-10T11:33:39;32.83;;;14.93;;
47866;SDS011;33628;50.806;11.586;2022-12-10T11:36:13;38.47;;;17.73;;
47866;SDS011;33628;50.806;11.586;2022-12-10T11:38:48;32.47;;;15.60;;
47866;SDS011;33628;50.806;11.586;2022-12-10T11:41:19;31.85;;;14.43;;
47866;SDS011;33628;50.806;11.586;2022-12-10T11:44:06;28.13;;;14.27;;
47866;SDS011;33628;50.806;11.586;2022-12-10T11:46:53;29.50;;;13.73;;
47866;SDS011;33628;50.806;11.586;2022-12-10T11:49:29;31.30;;;13.88;;
47866;SDS011;33628;50.806;11.586;2022-12-10T11:52:05;31.02;;;14.05;;
47866;SDS011;33628;50.806;11.586;2022-12-10T11:54:52;29.33;;;14.27;;
47866;SDS011;33628;50.806;11.586;2022-12-10T11:57:27;48.45;;;21.27;;
47866;SDS011;33628;50.806;11.586;2022-12-10T12:00:00;36.10;;;16.60;;
47866;SDS011;33628;50.806;11.586;2022-12-10T12:02:41;41.05;;;17.75;;
47866;SDS011;33628;50.806;11.586;2022-12-10T12:05:35;40.03;;;18.90;;
47866;SDS011;33628;50.806;11.586;2022-12-10T12:08:08;34.72;;;17.85;;
47866;SDS011;33628;50.806;11.586;2022-12-10T12:13:30;28.15;;;14.95;;
47866;SDS011;33628;50.806;11.586;2022-12-10T12:16:01;32.38;;;15.95;;
47866;SDS011;33628;50.806;11.586;2022-12-10T12:18:34;34.47;;;16.50;;
47866;SDS011;33628;50.806;11.586;2022-12-10T12:21:09;31.00;;;15.13;;
47866;SDS011;33628;50.806;11.586;2022-12-10T12:23:39;30.55;;;14.70;;
47866;SDS011;33628;50.806;11.586;2022-12-10T12:26:10;33.15;;;16.35;;
47866;SDS011;33628;50.806;11.586;2022-12-10T12:28:40;29.70;;;13.82;;
47866;SDS011;33628;50.806;11.586;2022-12-10T12:31:11;28.90;;;15.50;;
47866;SDS011;33628;50.806;11.586;2022-12-10T12:33:40;34.15;;;17.58;;
47866;SDS011;33628;50.806;11.586;2022-12-10T12:36:11;29.63;;;16.10;;
47866;SDS011;33628;50.806;11.586;2022-12-10T12:38:43;27.13;;;15.60;;
47866;SDS011;33628;50.806;11.586;2022-12-10T12:41:14;30.27;;;14.68;;
47866;SDS011;33628;50.806;11.586;2022-12-10T12:43:44;27.33;;;13.52;;
47866;SDS011;33628;50.806;11.586;2022-12-10T12:46:15;32.92;;;17.55;;
47866;SDS011;33628;50.806;11.586;2022-12-10T12:48:47;31.85;;;15.52;;
47866;SDS011;33628;50.806;11.586;2022-12-10T12:51:19;30.90;;;15.20;;
47866;SDS011;33628;50.806;11.586;2022-12-10T12:53:48;30.15;;;15.32;;
47866;SDS011;33628;50.806;11.586;2022-12-10T12:56:17;33.78;;;16.42;;
47866;SDS011;33628;50.806;11.586;2022-12-10T12:58:53;30.98;;;16.02;;
47866;SDS011;33628;50.806;11.586;2022-12-10T13:01:28;28.42;;;14.70;;
47866;SDS011;33628;50.806;11.586;2022-12-10T13:03:57;29.13;;;14.63;;
47866;SDS011;33628;50.806;11.586;2022-12-10T13:06:27;32.60;;;15.77;;
47866;SDS011;33628;50.806;11.586;2022-12-10T13:08:57;34.97;;;16.75;;
47866;SDS011;33628;50.806;11.586;2022-12-10T13:11:29;37.30;;;17.70;;
47866;SDS011;33628;50.806;11.586;2022-12-10T13:17:05;35.92;;;16.90;;
47866;SDS011;33628;50.806;11.586;2022-12-10T13:19:34;37.30;;;17.50;;
47866;SDS011;33628;50.806;11.586;2022-12-10T13:22:04;37.70;;;18.58;;
47866;SDS011;33628;50.806;11.586;2022-12-10T13:24:47;44.88;;;20.10;;
47866;SDS011;33628;50.806;11.586;2022-12-10T13:27:30;40.95;;;18.58;;
47866;SDS011;33628;50.806;11.586;2022-12-10T13:30:00;49.58;;;21.10;;
47866;SDS011;33628;50.806;11.586;2022-12-10T13:32:45;48.00;;;20.42;;
47866;SDS011;33628;50.806;11.586;2022-12-10T13:35:23;45.97;;;21.27;;
47866;SDS011;33628;50.806;11.586;2022-12-10T13:37:55;41.35;;;19.05;;
47866;SDS011;33628;50.806;11.586;2022-12-10T13:40:24;46.78;;;19.98;;
47866;SDS011;33628;50.806;11.586;2022-12-10T13:42:57;49.15;;;21.60;;
47866;SDS011;33628;50.806;11.586;2022-12-10T13:45:43;45.92;;;20.38;;
47866;SDS011;33628;50.806;11.586;2022-12-10T13:48:25;46.22;;;19.92;;
47866;SDS011;33628;50.806;11.586;2022-12-10T13:51:07;47.30;;;20.58;;
47866;SDS011;33628;50.806;11.586;2022-12-10T13:53:47;47.20;;;20.90;;
47866;SDS011;33628;50.806;11.586;2022-12-10T13:56:25;46.08;;;20.73;;
47866;SDS011;33628;50.806;11.586;2022-12-10T13:58:57;50.25;;;21.60;;
47866;SDS011;33628;50.806;11.586;2022-12-10T14:01:38;47.35;;;20.55;;
47866;SDS011;33628;50.806;11.586;2022-12-10T14:07:08;41.03;;;18.48;;
47866;SDS011;33628;50.806;11.586;2022-12-10T14:09:40;39.65;;;17.73;;
47866;SDS011;33628;50.806;11.586;2022-12-10T14:12:13;40.17;;;18.38;;
47866;SDS011;33628;50.806;11.586;2022-12-10T14:14:42;40.97;;;18.48;;
47866;SDS011;33628;50.806;11.586;2022-12-10T14:17:11;37.47;;;18.08;;
47866;SDS011;33628;50.806;11.586;2022-12-10T14:19:41;38.22;;;16.80;;
47866;SDS011;33628;50.806;11.586;2022-12-10T14:22:08;35.47;;;17.33;;
47866;SDS011;33628;50.806;11.586;2022-12-10T14:24:42;40.15;;;17.55;;
47866;SDS011;33628;50.806;11.586;2022-12-10T14:27:11;34.78;;;16.35;;
47866;SDS011;33628;50.806;11.586;2022-12-10T14:29:43;36.00;;;16.98;;
47866;SDS011;33628;50.806;11.586;2022-12-10T14:32:12;36.72;;;16.65;;
47866;SDS011;33628;50.806;11.586;2022-12-10T14:34:40;36.40;;;17.15;;
47866;SDS011;33628;50.806;11.586;2022-12-10T14:37:08;39.58;;;18.33;;